createdAt,value
2019-01-25T00:01:41.708Z,83.21
2019-01-25T00:04:16.203Z,83.27
2019-01-25T00:06:50.767Z,83.29
2019-01-25T00:09:24.463Z,83.32
2019-01-25T00:11:57.847Z,83.36
2019-01-25T00:14:30.842Z,83.40
2019-01-25T00:17:04.135Z,83.38
2019-01-25T00:19:40.424Z,83.36
2019-01-25T00:22:13.482Z,83.37
2019-01-25T00:24:46.518Z,83.43
2019-01-25T00:27:20.832Z,83.51
2019-01-25T00:29:53.826Z,83.51
2019-01-25T00:32:28.836Z,83.48
2019-01-25T00:35:02.340Z,83.46
2019-01-25T00:37:36.081Z,83.46
2019-01-25T00:40:12.689Z,83.47
2019-01-25T00:42:45.984Z,83.60
2019-01-25T00:45:20.033Z,83.68
2019-01-25T00:47:52.945Z,83.71
2019-01-25T00:50:25.986Z,83.84
2019-01-25T00:52:59.333Z,83.88
2019-01-25T00:55:32.492Z,83.81
2019-01-25T00:58:06.131Z,83.76
2019-01-25T01:00:39.399Z,83.82
2019-01-25T01:03:12.346Z,83.83
2019-01-25T01:05:47.176Z,83.89
2019-01-25T01:08:20.511Z,83.95
2019-01-25T01:10:53.454Z,83.93
2019-01-25T01:13:26.369Z,83.98
2019-01-25T01:15:59.911Z,84.08
2019-01-25T01:18:33.427Z,84.22
2019-01-25T01:21:06.449Z,84.30
2019-01-25T01:23:39.991Z,84.33
2019-01-25T01:26:14.483Z,84.30
2019-01-25T01:28:47.261Z,84.26
2019-01-25T01:31:21.544Z,84.32
2019-01-25T01:33:55.122Z,84.35
2019-01-25T01:36:29.048Z,84.35
2019-01-25T01:39:05.211Z,84.37
2019-01-25T01:41:38.175Z,84.40
2019-01-25T01:44:11.126Z,84.50
2019-01-25T01:46:44.532Z,84.54
2019-01-25T01:49:17.332Z,84.63
2019-01-25T01:51:51.224Z,84.75
2019-01-25T01:54:24.815Z,84.79
2019-01-25T01:56:57.672Z,84.73
2019-01-25T01:59:31.252Z,84.75
2019-01-25T02:02:04.949Z,84.83
2019-01-25T02:04:37.959Z,84.89
2019-01-25T02:07:10.947Z,85.02
2019-01-25T02:09:44.299Z,85.18
2019-01-25T02:12:17.519Z,85.31
2019-01-25T02:14:50.476Z,85.38
2019-01-25T02:17:23.941Z,85.43
2019-01-25T02:19:57.730Z,85.52
2019-01-25T02:22:30.679Z,85.61
2019-01-25T02:25:04.844Z,85.64
2019-01-25T02:27:40.410Z,85.69
2019-01-25T02:30:19.785Z,85.69
2019-01-25T02:32:54.032Z,85.73
2019-01-25T02:35:26.851Z,85.78
2019-01-25T02:38:01.280Z,85.89
2019-01-25T02:40:39.186Z,85.92
2019-01-25T02:43:13.875Z,85.94
2019-01-25T02:45:48.072Z,85.93
2019-01-25T02:48:20.916Z,85.87
2019-01-25T02:50:53.755Z,85.78
2019-01-25T02:53:28.375Z,85.64
2019-01-25T02:56:01.475Z,85.63
2019-01-25T02:58:37.915Z,85.57
2019-01-25T03:01:11.655Z,85.58
2019-01-25T03:03:44.806Z,85.49
2019-01-25T03:06:17.923Z,85.54
2019-01-25T03:08:51.362Z,85.51
2019-01-25T03:11:24.288Z,85.51
2019-01-25T03:13:57.328Z,85.38
2019-01-25T03:16:30.665Z,85.27
2019-01-25T03:19:04.187Z,85.15
2019-01-25T03:21:37.055Z,85.08
2019-01-25T03:24:11.504Z,85.01
2019-01-25T03:26:44.289Z,84.94
2019-01-25T03:29:17.561Z,84.87
2019-01-25T03:31:51.874Z,84.93
2019-01-25T03:34:24.935Z,84.97
2019-01-25T03:36:58.800Z,85.00
2019-01-25T03:39:36.037Z,85.00
2019-01-25T03:42:08.986Z,85.03
2019-01-25T03:44:46.634Z,84.98
2019-01-25T03:47:23.456Z,84.88
2019-01-25T03:49:56.347Z,84.77
2019-01-25T03:52:29.875Z,84.75
2019-01-25T03:55:02.907Z,84.73
2019-01-25T03:57:36.291Z,84.59
2019-01-25T04:00:16.555Z,84.55
2019-01-25T04:02:51.798Z,84.59
2019-01-25T04:05:26.326Z,84.61
2019-01-25T04:07:59.719Z,84.62
2019-01-25T04:10:32.831Z,84.65
2019-01-25T04:13:06.555Z,84.58
2019-01-25T04:15:40.563Z,84.58
2019-01-25T04:18:13.461Z,84.56
2019-01-25T04:20:46.511Z,84.51
2019-01-25T04:23:19.900Z,84.52
2019-01-25T04:25:53.954Z,84.48
2019-01-25T04:28:26.767Z,84.40
2019-01-25T04:31:02.578Z,84.41
2019-01-25T04:33:35.572Z,84.45
2019-01-25T04:36:08.734Z,84.51
2019-01-25T04:38:42.116Z,84.52
2019-01-25T04:41:15.074Z,84.60
2019-01-25T04:43:49.684Z,84.68
2019-01-25T04:46:23.531Z,84.74
2019-01-25T04:48:57.053Z,84.74
2019-01-25T04:51:30.593Z,84.75
2019-01-25T04:54:04.096Z,84.79
2019-01-25T04:56:39.934Z,84.83
2019-01-25T04:59:12.743Z,84.97
2019-01-25T05:01:46.144Z,85.10
2019-01-25T05:04:18.920Z,85.23
2019-01-25T05:06:52.003Z,85.26
2019-01-25T05:09:26.859Z,85.23
2019-01-25T05:12:05.125Z,85.22
2019-01-25T05:14:38.464Z,85.59
2019-01-25T05:17:11.867Z,85.72
2019-01-25T05:19:46.289Z,85.82
2019-01-25T05:22:19.446Z,85.96
2019-01-25T05:24:52.860Z,86.09
2019-01-25T05:27:25.880Z,86.21
2019-01-25T05:29:59.057Z,86.32
2019-01-25T05:32:33.420Z,86.56
2019-01-25T05:35:06.287Z,86.72
2019-01-25T05:37:39.494Z,86.82
2019-01-25T05:40:20.601Z,86.83
2019-01-25T05:42:57.409Z,86.81
2019-01-25T05:45:30.880Z,86.87
2019-01-25T05:48:06.108Z,86.96
2019-01-25T05:50:38.933Z,87.07
2019-01-25T05:53:13.886Z,87.19
2019-01-25T05:55:47.201Z,87.35
2019-01-25T05:58:23.441Z,87.55
2019-01-25T06:00:57.346Z,87.71
2019-01-25T06:03:30.602Z,87.86
2019-01-25T06:06:08.460Z,87.97
2019-01-25T06:08:44.006Z,88.05
2019-01-25T06:11:18.728Z,88.14
2019-01-25T06:13:53.900Z,88.25
2019-01-25T06:16:26.824Z,88.31
2019-01-25T06:19:00.583Z,88.45
2019-01-25T06:21:33.915Z,88.61
2019-01-25T06:24:06.778Z,88.84
2019-01-25T06:26:46.455Z,89.06
2019-01-25T06:29:20.345Z,89.31
2019-01-25T06:31:53.623Z,89.45
2019-01-25T06:34:28.216Z,89.67
2019-01-25T06:37:01.803Z,89.89
2019-01-25T06:39:35.217Z,90.19
2019-01-25T06:42:10.664Z,90.50
2019-01-25T06:44:45.011Z,90.76
2019-01-25T06:47:18.055Z,90.93
2019-01-25T06:49:52.668Z,91.09
2019-01-25T06:52:26.008Z,91.38
2019-01-25T06:55:04.294Z,91.63
2019-01-25T06:57:49.389Z,91.84
2019-01-25T07:00:24.733Z,92.08
2019-01-25T07:03:02.518Z,92.29
2019-01-25T07:05:35.423Z,92.53
2019-01-25T07:08:14.842Z,92.71
2019-01-25T07:10:48.683Z,92.90
2019-01-25T07:13:22.560Z,93.06
2019-01-25T07:15:56.661Z,93.19
2019-01-25T07:18:29.529Z,93.33
2019-01-25T07:21:02.486Z,93.52
2019-01-25T07:23:35.922Z,93.75
2019-01-25T07:26:08.840Z,93.85
2019-01-25T07:28:43.613Z,93.95
2019-01-25T07:31:17.377Z,94.06
2019-01-25T07:33:52.143Z,94.19
2019-01-25T07:36:26.481Z,94.29
2019-01-25T07:38:59.378Z,94.41
2019-01-25T07:41:31.733Z,94.56
2019-01-25T07:44:06.851Z,94.66
2019-01-25T07:46:40.552Z,94.79
2019-01-25T07:49:13.549Z,94.96
2019-01-25T07:51:48.636Z,95.06
2019-01-25T07:54:24.546Z,95.18
2019-01-25T07:56:57.867Z,95.35
2019-01-25T07:59:36.686Z,95.46
2019-01-25T08:02:13.618Z,95.56
2019-01-25T08:04:47.841Z,95.65
2019-01-25T08:07:32.877Z,95.74
2019-01-25T08:10:18.219Z,95.88
2019-01-25T08:12:55.953Z,95.94
2019-01-25T08:15:30.253Z,96.03
2019-01-25T08:18:04.804Z,96.06
2019-01-25T08:20:37.674Z,96.12
2019-01-25T08:23:10.709Z,96.15
2019-01-25T08:25:44.453Z,96.24
2019-01-25T08:28:17.800Z,96.34
2019-01-25T08:30:51.148Z,96.38
2019-01-25T08:33:24.513Z,96.43
2019-01-25T08:36:00.595Z,96.52
2019-01-25T08:38:37.081Z,96.53
2019-01-25T08:41:10.661Z,96.61
2019-01-25T08:43:44.879Z,96.67
2019-01-25T08:46:23.437Z,96.65
2019-01-25T08:48:57.860Z,96.62
2019-01-25T08:51:32.325Z,96.48
2019-01-25T08:54:05.767Z,96.39
2019-01-25T08:56:42.717Z,96.40
2019-01-25T08:59:17.383Z,96.43
2019-01-25T09:01:50.864Z,96.49
2019-01-25T09:04:27.725Z,96.40
2019-01-25T09:07:02.676Z,96.50
2019-01-25T09:09:38.703Z,96.49
2019-01-25T09:12:13.549Z,96.49
2019-01-25T09:14:49.474Z,96.55
2019-01-25T09:17:24.356Z,96.50
2019-01-25T09:20:02.536Z,96.43
2019-01-25T09:22:35.389Z,96.17
2019-01-25T09:25:35.787Z,96.11
2019-01-25T09:28:14.017Z,96.32
2019-01-25T09:30:48.820Z,96.34
2019-01-25T09:33:23.486Z,96.27
2019-01-25T09:35:57.345Z,96.13
2019-01-25T09:38:36.776Z,95.76
2019-01-25T09:41:13.138Z,95.58
2019-01-25T09:43:48.124Z,95.34
2019-01-25T09:46:25.649Z,95.14
2019-01-25T09:48:59.530Z,94.96
2019-01-25T09:51:37.836Z,94.90
2019-01-25T09:54:12.377Z,94.77
2019-01-25T09:56:48.453Z,94.49
2019-01-25T09:59:25.395Z,94.33
2019-01-25T10:01:58.331Z,94.03
2019-01-25T10:04:35.422Z,93.70
2019-01-25T10:07:12.168Z,93.30
2019-01-25T10:09:49.799Z,93.26
2019-01-25T10:12:24.536Z,93.40
2019-01-25T10:14:59.497Z,93.45
2019-01-25T10:17:41.683Z,93.58
2019-01-25T10:20:16.537Z,93.48
2019-01-25T10:22:53.800Z,93.13
2019-01-25T10:25:29.517Z,93.31
2019-01-25T10:28:03.811Z,93.47
2019-01-25T10:30:36.897Z,93.66
2019-01-25T10:33:13.540Z,93.72
2019-01-25T10:35:51.898Z,93.74
2019-01-25T10:38:25.708Z,93.46
2019-01-25T10:41:05.020Z,93.18
2019-01-25T10:43:38.072Z,93.24
2019-01-25T10:46:11.926Z,93.19
2019-01-25T10:48:46.353Z,93.16
2019-01-25T10:51:22.772Z,93.24
2019-01-25T10:54:06.474Z,93.05
2019-01-25T10:56:41.956Z,93.12
2019-01-25T10:59:15.144Z,93.11
2019-01-25T11:01:49.932Z,92.65
2019-01-25T11:04:27.165Z,92.23
2019-01-25T11:07:01.317Z,91.93
2019-01-25T11:09:38.139Z,91.53
2019-01-25T11:12:12.724Z,91.46
2019-01-25T11:14:48.775Z,91.23
2019-01-25T11:17:23.832Z,90.80
2019-01-25T11:19:57.679Z,90.75
2019-01-25T11:22:30.877Z,90.57
2019-01-25T11:25:08.904Z,90.30
2019-01-25T11:27:41.758Z,90.14
2019-01-25T11:30:24.512Z,89.97
2019-01-25T11:32:58.332Z,89.57
2019-01-25T11:35:31.481Z,89.13
2019-01-25T11:38:07.488Z,89.13
2019-01-25T11:40:44.140Z,89.04
2019-01-25T11:43:20.014Z,89.21
2019-01-25T11:45:56.834Z,89.24
2019-01-25T11:48:33.481Z,89.36
2019-01-25T11:51:09.893Z,89.45
2019-01-25T11:53:43.409Z,89.36
2019-01-25T11:56:17.484Z,88.79
2019-01-25T11:58:52.995Z,88.43
2019-01-25T12:01:31.700Z,88.29
2019-01-25T12:04:08.274Z,88.72
2019-01-25T12:06:41.172Z,88.80
2019-01-25T12:09:16.444Z,88.77
2019-01-25T12:11:49.425Z,88.87
2019-01-25T12:14:23.406Z,88.62
2019-01-25T12:16:56.422Z,88.50
2019-01-25T12:19:30.760Z,87.56
2019-01-25T12:22:05.730Z,87.56
2019-01-25T12:24:42.083Z,87.75
2019-01-25T12:27:17.447Z,87.37
2019-01-25T12:29:52.172Z,87.38
2019-01-25T12:32:28.208Z,86.75
2019-01-25T12:35:07.348Z,86.69
2019-01-25T12:37:42.995Z,86.76
2019-01-25T12:40:17.765Z,86.88
2019-01-25T12:42:50.685Z,86.77
2019-01-25T12:45:27.027Z,86.10
2019-01-25T12:48:03.229Z,85.69
2019-01-25T12:50:49.135Z,85.19
2019-01-25T12:53:26.747Z,84.57
2019-01-25T12:56:02.384Z,83.95
2019-01-25T12:58:36.372Z,84.37
2019-01-25T13:01:10.302Z,83.48
2019-01-25T13:03:44.204Z,82.99
2019-01-25T13:06:18.230Z,83.25
2019-01-25T13:08:52.558Z,82.72
2019-01-25T13:11:26.393Z,82.17
2019-01-25T13:14:00.466Z,81.71
2019-01-25T13:16:35.989Z,82.11
2019-01-25T13:19:11.819Z,82.00
2019-01-25T13:21:48.916Z,82.02
2019-01-25T13:24:23.558Z,82.13
2019-01-25T13:27:00.411Z,82.09
2019-01-25T13:29:34.266Z,82.38
2019-01-25T13:32:14.445Z,82.40
2019-01-25T13:34:51.539Z,82.07
2019-01-25T13:37:31.315Z,81.62
2019-01-25T13:40:12.436Z,82.01
2019-01-25T13:42:59.595Z,82.14
2019-01-25T13:45:33.737Z,81.73
2019-01-25T13:48:06.942Z,81.43
2019-01-25T13:50:41.517Z,81.72
2019-01-25T13:53:24.778Z,81.83
2019-01-25T13:55:59.999Z,81.65
2019-01-25T13:58:36.876Z,81.27
2019-01-25T14:01:10.936Z,81.53
2019-01-25T14:03:46.690Z,81.50
2019-01-25T14:06:22.809Z,81.07
2019-01-25T14:08:59.023Z,80.62
2019-01-25T14:11:34.801Z,80.70
2019-01-25T14:14:08.541Z,79.48
2019-01-25T14:16:41.616Z,79.35
2019-01-25T14:19:16.526Z,79.83
2019-01-25T14:21:55.255Z,79.95
2019-01-25T14:24:29.218Z,79.38
2019-01-25T14:27:03.968Z,78.98
2019-01-25T14:29:39.069Z,79.65
2019-01-25T14:32:13.616Z,80.05
2019-01-25T14:34:48.853Z,80.06
2019-01-25T14:37:23.570Z,80.19
2019-01-25T14:39:57.187Z,80.24
2019-01-25T14:42:31.360Z,80.49
2019-01-25T14:45:10.545Z,80.70
2019-01-25T14:47:46.126Z,80.93
2019-01-25T14:50:21.832Z,81.12
2019-01-25T14:53:00.725Z,81.12
2019-01-25T14:55:37.526Z,81.26
2019-01-25T14:58:13.398Z,81.31
2019-01-25T15:00:54.731Z,81.46
2019-01-25T15:03:41.083Z,81.59
2019-01-25T15:06:22.852Z,81.68
2019-01-25T15:09:12.793Z,81.49
2019-01-25T15:11:54.246Z,81.37
2019-01-25T15:14:35.766Z,81.26
2019-01-25T15:17:14.091Z,80.90
2019-01-25T15:20:02.947Z,80.69
2019-01-25T15:22:50.209Z,80.81
2019-01-25T15:25:30.540Z,80.74
2019-01-25T15:28:10.298Z,80.76
2019-01-25T15:30:56.471Z,80.81
2019-01-25T15:33:45.988Z,80.86
2019-01-25T15:36:31.530Z,81.01
2019-01-25T15:39:14.860Z,81.10
2019-01-25T15:41:57.346Z,81.24
2019-01-25T15:44:41.854Z,81.44
2019-01-25T15:47:20.163Z,81.57
2019-01-25T15:50:05.886Z,81.55
2019-01-25T15:52:41.129Z,81.60
2019-01-25T15:55:15.452Z,81.66
2019-01-25T15:57:58.506Z,81.73
2019-01-25T16:00:32.769Z,81.75
2019-01-25T16:03:08.783Z,81.87
2019-01-25T16:05:43.673Z,82.19
2019-01-25T16:08:21.807Z,82.67
2019-01-25T16:11:00.809Z,83.25
2019-01-25T16:13:43.121Z,83.77
2019-01-25T16:16:20.396Z,84.53
2019-01-25T16:19:07.853Z,85.26
2019-01-25T16:21:42.603Z,85.76
2019-01-25T16:24:15.636Z,86.55
2019-01-25T16:26:49.611Z,87.53
2019-01-25T16:29:24.708Z,89.15
2019-01-25T16:32:01.956Z,90.29
2019-01-25T16:34:38.235Z,91.14
2019-01-25T16:37:14.398Z,92.49
2019-01-25T16:39:50.052Z,92.81
2019-01-25T16:42:24.777Z,93.99
2019-01-25T16:44:58.014Z,94.75
2019-01-25T16:47:31.465Z,95.01
2019-01-25T16:50:08.302Z,95.37
2019-01-25T16:52:48.349Z,95.75
2019-01-25T16:55:22.062Z,95.87
2019-01-25T16:57:58.641Z,96.50
2019-01-25T17:00:40.403Z,96.83
2019-01-25T17:03:22.612Z,97.37
2019-01-25T17:05:56.381Z,97.93
2019-01-25T17:08:33.377Z,98.37
2019-01-25T17:11:06.731Z,98.64
2019-01-25T17:13:44.437Z,99.26
2019-01-25T17:16:19.642Z,99.46
2019-01-25T17:18:55.624Z,99.76
2019-01-25T17:21:29.682Z,100.00
2019-01-25T17:24:06.647Z,100.00
2019-01-25T17:26:42.031Z,100.00
2019-01-25T17:29:17.341Z,100.00
2019-01-25T17:31:54.680Z,100.00
2019-01-25T17:34:32.244Z,100.00
2019-01-25T17:37:06.043Z,100.00
2019-01-25T17:39:57.717Z,100.00
2019-01-25T17:42:32.392Z,100.00
2019-01-25T17:45:09.103Z,100.00
2019-01-25T17:47:47.468Z,100.00
2019-01-25T17:50:20.659Z,100.00
2019-01-25T17:52:55.617Z,100.00
2019-01-25T17:55:36.522Z,100.00
2019-01-25T17:58:16.445Z,100.00
2019-01-25T18:00:57.601Z,100.00
2019-01-25T18:03:32.528Z,100.00
2019-01-25T18:06:05.924Z,100.00
2019-01-25T18:08:38.923Z,100.00
2019-01-25T18:11:12.632Z,100.00
2019-01-25T18:13:45.702Z,100.00
2019-01-25T18:16:24.900Z,100.00
2019-01-25T18:18:58.739Z,100.00
2019-01-25T18:21:34.835Z,100.00
2019-01-25T18:24:12.300Z,100.00
2019-01-25T18:26:46.382Z,100.00
2019-01-25T18:29:40.232Z,100.00
2019-01-25T18:32:14.040Z,100.00
2019-01-25T18:34:49.808Z,100.00
2019-01-25T18:37:25.309Z,100.00
2019-01-25T18:39:59.374Z,100.00
2019-01-25T18:42:34.236Z,100.00
2019-01-25T18:45:14.462Z,100.00
2019-01-25T18:47:48.663Z,100.00
2019-01-25T18:50:25.794Z,100.00
2019-01-25T18:53:02.106Z,100.00
2019-01-25T18:55:36.200Z,100.00
2019-01-25T18:58:10.536Z,100.00
2019-01-25T19:00:46.653Z,100.00
2019-01-25T19:03:21.945Z,100.00
2019-01-25T19:05:58.874Z,100.00
2019-01-25T19:08:35.162Z,100.00
2019-01-25T19:11:12.612Z,100.00
2019-01-25T19:13:51.216Z,100.00
2019-01-25T19:16:29.453Z,100.00
2019-01-25T19:19:04.708Z,100.00
2019-01-25T19:21:39.189Z,100.00
2019-01-25T19:24:14.613Z,100.00
2019-01-25T19:26:50.050Z,100.00
2019-01-25T19:29:27.836Z,100.00
2019-01-25T19:32:03.862Z,100.00
2019-01-25T19:34:45.141Z,100.00
2019-01-25T19:37:35.221Z,100.00
2019-01-25T19:40:17.303Z,100.00
2019-01-25T19:42:55.888Z,100.00
2019-01-25T19:45:36.577Z,100.00
2019-01-25T19:48:12.647Z,100.00
2019-01-25T19:50:48.596Z,100.00
2019-01-25T19:53:33.487Z,100.00
2019-01-25T19:56:10.025Z,100.00
2019-01-25T19:58:50.365Z,100.00
2019-01-25T20:01:29.405Z,100.00
2019-01-25T20:04:02.988Z,100.00
2019-01-25T20:06:37.663Z,100.00
2019-01-25T20:09:12.650Z,100.00
2019-01-25T20:11:51.710Z,100.00
2019-01-25T20:14:33.544Z,100.00
2019-01-25T20:17:09.097Z,100.00
2019-01-25T20:19:46.773Z,100.00
2019-01-25T20:22:21.880Z,100.00
2019-01-25T20:24:57.456Z,100.00
2019-01-25T20:27:34.744Z,100.00
2019-01-25T20:30:20.230Z,100.00
2019-01-25T20:32:57.417Z,100.00
2019-01-25T20:35:40.246Z,100.00
2019-01-25T20:38:16.576Z,100.00
2019-01-25T20:40:50.688Z,100.00
2019-01-25T20:43:29.436Z,100.00
2019-01-25T20:46:02.555Z,100.00
2019-01-25T20:48:37.417Z,100.00
2019-01-25T20:51:17.902Z,100.00
2019-01-25T20:53:52.035Z,100.00
2019-01-25T20:56:26.314Z,100.00
2019-01-25T20:59:02.031Z,100.00
2019-01-25T21:01:35.116Z,100.00
2019-01-25T21:04:09.464Z,100.00
2019-01-25T21:06:42.568Z,100.00
2019-01-25T21:09:17.630Z,100.00
2019-01-25T21:11:54.707Z,100.00
2019-01-25T21:14:27.874Z,100.00
2019-01-25T21:17:04.411Z,100.00
2019-01-25T21:19:38.798Z,100.00
2019-01-25T21:22:11.998Z,100.00
2019-01-25T21:24:45.301Z,100.00
2019-01-25T21:27:22.297Z,100.00
2019-01-25T21:29:56.286Z,100.00
2019-01-25T21:32:30.545Z,100.00
2019-01-25T21:35:06.105Z,100.00
2019-01-25T21:37:41.738Z,100.00
2019-01-25T21:40:19.120Z,100.00
2019-01-25T21:42:53.724Z,100.00
2019-01-25T21:45:30.212Z,100.00
2019-01-25T21:48:09.421Z,100.00
2019-01-25T21:50:45.402Z,100.00
2019-01-25T21:53:19.224Z,100.00
2019-01-25T21:55:53.092Z,100.00
2019-01-25T21:58:26.135Z,100.00
2019-01-25T22:01:10.202Z,100.00
2019-01-25T22:03:46.334Z,100.00
2019-01-25T22:06:19.312Z,100.00
2019-01-25T22:08:54.028Z,100.00
2019-01-25T22:11:31.105Z,100.00
2019-01-25T22:14:06.144Z,100.00
2019-01-25T22:16:45.165Z,100.00
2019-01-25T22:19:20.523Z,100.00
2019-01-25T22:21:55.605Z,100.00
2019-01-25T22:24:29.335Z,100.00
2019-01-25T22:27:04.650Z,100.00
2019-01-25T22:29:41.956Z,100.00
2019-01-25T22:32:17.388Z,100.00
2019-01-25T22:34:54.333Z,100.00
2019-01-25T22:37:28.404Z,100.00
2019-01-25T22:40:02.860Z,100.00
2019-01-25T22:42:37.589Z,100.00
2019-01-25T22:45:15.769Z,100.00
2019-01-25T22:47:51.519Z,100.00
2019-01-25T22:50:29.374Z,100.00
2019-01-25T22:53:08.294Z,100.00
2019-01-25T22:55:42.030Z,100.00
2019-01-25T22:58:16.210Z,100.00
2019-01-25T23:01:11.833Z,100.00
2019-01-25T23:04:37.005Z,100.00
2019-01-25T23:07:28.041Z,100.00
2019-01-25T23:10:15.813Z,100.00
2019-01-25T23:12:49.189Z,100.00
2019-01-25T23:15:23.576Z,100.00
2019-01-25T23:17:58.156Z,100.00
2019-01-25T23:20:31.056Z,100.00
2019-01-25T23:23:05.538Z,100.00
2019-01-25T23:25:39.728Z,100.00
2019-01-25T23:28:13.329Z,100.00
2019-01-25T23:30:46.870Z,100.00
2019-01-25T23:33:20.733Z,100.00
2019-01-25T23:35:56.584Z,100.00
2019-01-25T23:38:29.563Z,100.00
2019-01-25T23:41:02.479Z,100.00
2019-01-25T23:43:37.788Z,100.00
2019-01-25T23:46:13.865Z,100.00
2019-01-25T23:48:48.485Z,100.00
2019-01-25T23:51:23.785Z,100.00
2019-01-25T23:53:57.857Z,100.00
2019-01-25T23:56:32.375Z,100.00
2019-01-25T23:59:06.630Z,100.00
